Time;durP1;ratioP1;P1;durP2;ratioP2;P2;SDS_P1;SDS_P2;PMS_P1;PMS_P2;Temp;Humidity;BMP_temperature;BMP_pressure;BME280_temperature;BME280_humidity;BME280_pressure;Samples;Min_cycle;Max_cycle;Signal;HPM_P1;HPM_P2
2020/12/22 00:00:13;;;;;;;35.55;4.95;;;;;;;12.66;100.00;101102.97;5111459;28;20834;-66
2020/12/22 00:02:47;;;;;;;36.05;6.13;;;;;;;12.64;100.00;101094.19;5111255;28;20039;-66
2020/12/22 00:05:14;;;;;;;37.50;5.65;;;;;;;12.64;100.00;101113.34;5111486;28;20123;-66
2020/12/22 00:07:40;;;;;;;32.10;4.55;;;;;;;12.62;100.00;101099.09;5111197;28;20051;-66
2020/12/22 00:10:07;;;;;;;41.38;5.25;;;;;;;12.62;100.00;101110.88;5111284;28;20130;-66
2020/12/22 00:12:33;;;;;;;34.75;5.80;;;;;;;12.61;100.00;101106.47;5111254;28;20569;-66
2020/12/22 00:14:59;;;;;;;30.92;4.72;;;;;;;12.63;100.00;101119.91;5111208;28;20193;-66
2020/12/22 00:17:25;;;;;;;29.23;4.53;;;;;;;12.62;100.00;101118.25;5111355;28;20089;-66
2020/12/22 00:19:50;;;;;;;43.80;5.90;;;;;;;12.63;100.00;101103.47;5111286;28;20085;-66
2020/12/22 00:22:16;;;;;;;42.88;6.65;;;;;;;12.62;100.00;101112.78;5111210;28;20413;-66
2020/12/22 00:24:42;;;;;;;37.17;5.00;;;;;;;12.63;100.00;101123.50;5111114;28;20435;-66
2020/12/22 00:27:08;;;;;;;38.65;5.90;;;;;;;12.64;100.00;101127.06;5111083;28;20039;-66
2020/12/22 00:29:33;;;;;;;38.05;4.95;;;;;;;12.64;100.00;101138.03;5110965;28;20039;-66
2020/12/22 00:32:03;;;;;;;32.17;4.38;;;;;;;12.66;100.00;101130.38;5111189;28;20035;-66
2020/12/22 00:34:29;;;;;;;30.65;4.82;;;;;;;12.64;100.00;101132.53;5111232;28;20047;-66
2020/12/22 00:36:55;;;;;;;33.13;5.70;;;;;;;12.67;100.00;101143.03;5111392;28;20036;-66
2020/12/22 00:39:21;;;;;;;31.08;5.32;;;;;;;12.66;100.00;101142.16;5110933;28;20063;-66
2020/12/22 00:41:57;;;;;;;29.55;5.20;;;;;;;12.66;100.00;101153.13;5110906;28;20038;-66
2020/12/22 00:44:24;;;;;;;36.80;5.32;;;;;;;12.66;100.00;101146.81;5110948;28;20063;-66
2020/12/22 00:46:50;;;;;;;25.45;4.43;;;;;;;12.65;100.00;101151.47;5110938;28;20181;-66
2020/12/22 00:49:16;;;;;;;26.85;4.45;;;;;;;12.63;100.00;101136.38;5111001;28;20563;-66
2020/12/22 00:51:41;;;;;;;25.80;4.15;;;;;;;12.64;100.00;101135.28;5109887;28;20075;-66
2020/12/22 00:54:07;;;;;;;32.03;4.82;;;;;;;12.65;100.00;101150.66;5113288;28;20032;-66
2020/12/22 00:56:33;;;;;;;32.05;5.72;;;;;;;12.64;100.00;101148.97;5114814;28;20044;-66
2020/12/22 00:58:58;;;;;;;39.65;5.82;;;;;;;12.63;100.00;101161.03;5114577;28;20035;-66
2020/12/22 01:01:24;;;;;;;37.05;5.57;;;;;;;12.63;100.00;101158.28;5114749;27;20063;-66
2020/12/22 01:03:49;;;;;;;45.80;4.43;;;;;;;12.62;100.00;101159.38;5114509;28;20052;-66
2020/12/22 01:06:16;;;;;;;30.10;4.10;;;;;;;12.61;100.00;101154.97;5114790;28;20039;-66
2020/12/22 01:08:42;;;;;;;26.00;5.13;;;;;;;12.61;100.00;101154.97;5114743;28;20100;-66
2020/12/22 01:11:09;;;;;;;28.67;3.83;;;;;;;12.60;100.00;101158.78;5114586;28;20109;-66
2020/12/22 01:13:34;;;;;;;22.92;3.33;;;;;;;12.60;100.00;101161.53;5114529;28;20061;-66
2020/12/22 01:16:00;;;;;;;27.65;4.30;;;;;;;12.61;100.00;101166.75;5114477;28;20055;-66
2020/12/22 01:18:26;;;;;;;28.48;3.85;;;;;;;12.60;100.00;101164.28;5114305;27;20134;-66
2020/12/22 01:20:51;;;;;;;28.48;4.78;;;;;;;12.60;100.00;101167.00;5114320;28;20031;-65
2020/12/22 01:23:17;;;;;;;27.17;4.82;;;;;;;12.59;100.00;101171.66;5114423;28;20043;-66
2020/12/22 01:25:43;;;;;;;27.67;4.22;;;;;;;12.59;100.00;101170.81;5114409;28;20039;-66
2020/12/22 01:28:09;;;;;;;42.55;6.38;;;;;;;12.59;100.00;101179.06;5114104;28;20036;-66
2020/12/22 01:30:38;;;;;;;33.92;4.53;;;;;;;12.59;100.00;101168.09;5114164;28;20035;-66
2020/12/22 01:33:05;;;;;;;35.88;4.72;;;;;;;12.56;100.00;101180.38;5114060;28;20035;-65
2020/12/22 01:35:30;;;;;;;34.80;6.05;;;;;;;12.55;100.00;101180.63;5114068;28;20426;-65
2020/12/22 01:37:56;;;;;;;39.17;5.25;;;;;;;12.53;100.00;101191.00;5113797;28;20035;-65
2020/12/22 01:40:22;;;;;;;44.80;5.78;;;;;;;12.54;100.00;101181.72;5114204;28;20039;-66
2020/12/22 01:42:47;;;;;;;35.28;4.97;;;;;;;12.51;100.00;101187.69;5114001;28;20032;-66
2020/12/22 01:45:13;;;;;;;35.72;5.03;;;;;;;12.50;100.00;101175.91;5113830;28;20130;-66
2020/12/22 01:47:45;;;;;;;25.13;5.05;;;;;;;12.49;100.00;101196.13;5113740;28;20038;-66
2020/12/22 01:50:13;;;;;;;37.00;5.80;;;;;;;12.46;100.00;101199.38;5113804;28;20039;-66
2020/12/22 01:52:39;;;;;;;37.63;5.20;;;;;;;12.46;100.00;101212.22;5113703;28;20027;-66
2020/12/22 01:55:05;;;;;;;30.85;3.80;;;;;;;12.46;100.00;101217.72;5113657;28;20055;-66
2020/12/22 01:57:30;;;;;;;22.17;3.70;;;;;;;12.45;100.00;101210.56;5113717;28;20126;-66
2020/12/22 01:59:56;;;;;;;29.83;4.45;;;;;;;12.43;100.00;101218.22;5113600;28;20040;-66
2020/12/22 02:02:23;;;;;;;29.48;4.40;;;;;;;12.41;100.00;101215.72;5113553;28;20036;-66
2020/12/22 02:04:49;;;;;;;32.17;4.45;;;;;;;12.44;100.00;101225.34;5113030;28;20048;-66
2020/12/22 02:07:14;;;;;;;28.75;4.28;;;;;;;12.44;100.00;101230.81;5113381;28;20035;-66
2020/12/22 02:09:40;;;;;;;34.72;5.00;;;;;;;12.46;100.00;101229.50;5113422;28;20043;-66
2020/12/22 02:12:05;;;;;;;37.67;4.30;;;;;;;12.49;100.00;101233.66;5113472;28;20043;-66
2020/12/22 02:14:31;;;;;;;38.83;5.38;;;;;;;12.48;100.00;101238.31;5113473;28;20031;-66
2020/12/22 02:17:15;;;;;;;30.83;4.73;;;;;;;12.51;100.00;101231.53;5113187;28;20093;-66
2020/12/22 02:19:41;;;;;;;33.70;4.45;;;;;;;12.50;100.00;101232.59;5113123;28;20040;-66
2020/12/22 02:22:07;;;;;;;33.25;4.20;;;;;;;12.50;100.00;101229.88;5113175;27;20122;-66
2020/12/22 02:24:33;;;;;;;27.63;3.80;;;;;;;12.49;100.00;101239.13;5113098;28;20042;-66
2020/12/22 02:27:03;;;;;;;31.73;3.85;;;;;;;12.48;100.00;101227.34;5113231;28;20085;-66
2020/12/22 02:29:30;;;;;;;23.88;3.70;;;;;;;12.46;100.00;101234.16;5113233;28;20111;-66
2020/12/22 02:31:58;;;;;;;28.38;3.58;;;;;;;12.46;100.00;101234.16;5113166;28;20111;-66
2020/12/22 02:34:24;;;;;;;29.08;4.13;;;;;;;12.44;100.00;101228.91;5112877;28;20505;-66
2020/12/22 02:36:50;;;;;;;20.45;3.13;;;;;;;12.43;100.00;101237.38;5112796;28;20036;-66
2020/12/22 02:39:15;;;;;;;23.83;4.45;;;;;;;12.43;100.00;101240.13;5112790;28;20054;-66
2020/12/22 02:41:41;;;;;;;26.75;3.33;;;;;;;12.41;100.00;101242.28;5112778;28;20038;-66
2020/12/22 02:44:07;;;;;;;15.90;2.88;;;;;;;12.37;100.00;101242.78;5112730;28;20036;-66
2020/12/22 02:46:33;;;;;;;20.38;3.38;;;;;;;12.36;100.00;101246.59;5112915;28;20123;-66
2020/12/22 02:49:01;;;;;;;17.00;3.05;;;;;;;12.34;100.00;101248.75;5112595;28;20481;-66
2020/12/22 02:51:29;;;;;;;22.77;2.53;;;;;;;12.33;100.00;101252.56;5113202;28;20047;-66
2020/12/22 02:53:54;;;;;;;21.13;2.65;;;;;;;12.32;100.00;101245.41;5112525;28;20035;-66
2020/12/22 02:56:20;;;;;;;22.13;3.00;;;;;;;12.31;100.00;101249.22;5112617;28;20039;-66
2020/12/22 02:58:47;;;;;;;22.15;3.28;;;;;;;12.31;100.00;101251.94;5112588;28;20039;-66
2020/12/22 03:01:12;;;;;;;19.38;3.08;;;;;;;12.29;100.00;101250.53;5112499;28;20078;-66
2020/12/22 03:03:38;;;;;;;18.70;2.72;;;;;;;12.29;100.00;101243.16;5112622;28;20127;-66
2020/12/22 03:06:04;;;;;;;20.27;2.05;;;;;;;12.28;100.00;101249.69;5112387;28;20059;-66
2020/12/22 03:08:30;;;;;;;15.45;2.47;;;;;;;12.29;100.00;101240.41;5112410;28;20035;-66
2020/12/22 03:10:56;;;;;;;13.32;2.05;;;;;;;12.29;100.00;101245.88;5112316;28;20043;-66
2020/12/22 03:13:21;;;;;;;13.05;1.92;;;;;;;12.29;100.00;101247.78;5112196;28;20080;-66
2020/12/22 03:15:47;;;;;;;15.63;2.08;;;;;;;12.30;100.00;101253.03;5111606;28;20088;-66
2020/12/22 03:18:12;;;;;;;20.23;3.08;;;;;;;12.29;100.00;101251.38;5110721;28;20043;-66
2020/12/22 03:20:38;;;;;;;11.95;2.05;;;;;;;12.29;100.00;101253.28;5112460;28;20035;-66
2020/12/22 03:23:04;;;;;;;11.63;2.65;;;;;;;12.28;100.00;101255.19;5112064;28;20039;-66
2020/12/22 03:25:29;;;;;;;12.82;1.73;;;;;;;12.26;100.00;101246.38;5112116;28;20040;-66
2020/12/22 03:27:55;;;;;;;12.35;2.00;;;;;;;12.24;100.00;101256.75;5111968;28;20066;-66
2020/12/22 03:30:20;;;;;;;15.13;2.45;;;;;;;12.24;100.00;101254.00;5112024;28;20043;-66
2020/12/22 03:32:46;;;;;;;16.48;2.45;;;;;;;12.23;100.00;101252.34;5111978;28;20054;-66
2020/12/22 03:35:12;;;;;;;21.23;3.15;;;;;;;12.20;100.00;101252.84;5112142;28;20508;-66
2020/12/22 03:37:39;;;;;;;12.80;2.88;;;;;;;12.19;100.00;101255.81;5111929;28;20078;-66
2020/12/22 03:40:07;;;;;;;25.75;3.35;;;;;;;12.15;100.00;101260.97;5111803;28;20063;-66
2020/12/22 03:42:33;;;;;;;17.98;2.67;;;;;;;12.14;100.00;101264.75;5111712;28;20050;-66
2020/12/22 03:44:58;;;;;;;26.30;3.67;;;;;;;12.12;100.00;101263.31;5111833;28;20493;-66
2020/12/22 03:47:24;;;;;;;17.25;3.20;;;;;;;12.11;100.00;101265.22;5111551;28;20119;-66
2020/12/22 03:49:50;;;;;;;21.10;3.25;;;;;;;12.10;100.00;101266.31;5111929;28;20055;-66
2020/12/22 03:52:15;;;;;;;26.48;3.63;;;;;;;12.09;100.00;101261.91;5111896;28;20035;-66
2020/12/22 03:54:41;;;;;;;22.08;3.60;;;;;;;12.06;100.00;101257.75;5112022;28;20641;-66
2020/12/22 03:57:08;;;;;;;27.77;4.13;;;;;;;12.06;100.00;101263.22;5111643;28;20035;-66
2020/12/22 03:59:34;;;;;;;27.75;5.00;;;;;;;12.05;100.00;101271.69;5111622;28;20173;-66
2020/12/22 04:02:03;;;;;;;27.05;4.93;;;;;;;12.05;100.00;101272.50;5111576;28;20110;-66
2020/12/22 04:04:29;;;;;;;31.75;5.10;;;;;;;12.06;100.00;101274.19;5111451;28;20079;-66
2020/12/22 04:06:55;;;;;;;30.20;4.85;;;;;;;12.05;100.00;101275.25;5111627;28;20031;-66
2020/12/22 04:09:21;;;;;;;31.50;4.95;;;;;;;12.07;100.00;101275.00;5111698;28;20036;-66
2020/12/22 04:11:49;;;;;;;36.35;6.18;;;;;;;12.07;100.00;101275.00;5111516;28;20043;-66
2020/12/22 04:14:16;;;;;;;18.98;3.08;;;;;;;12.06;100.00;101274.19;5111489;28;20036;-66
2020/12/22 04:16:41;;;;;;;18.20;2.75;;;;;;;12.07;100.00;101275.00;5111364;28;20088;-66
2020/12/22 04:19:07;;;;;;;23.88;3.60;;;;;;;12.08;100.00;101276.66;5111652;28;20114;-66
2020/12/22 04:21:34;;;;;;;13.38;1.90;;;;;;;12.09;100.00;101283.81;5110340;28;20139;-66
2020/12/22 04:24:00;;;;;;;9.75;1.23;;;;;;;12.10;100.00;101284.63;5111419;28;20059;-66
2020/12/22 04:26:26;;;;;;;9.93;1.77;;;;;;;12.11;100.00;101292.59;5111641;28;20097;-66
2020/12/22 04:28:52;;;;;;;8.13;1.05;;;;;;;12.13;100.00;101286.88;5115109;28;20069;-66
2020/12/22 04:31:21;;;;;;;4.88;1.23;;;;;;;12.12;100.00;101299.75;5115463;28;20068;-66
2020/12/22 04:33:50;;;;;;;6.50;1.15;;;;;;;12.13;100.00;101295.94;5115422;28;20035;-66
2020/12/22 04:36:16;;;;;;;7.40;0.90;;;;;;;12.11;100.00;101300.81;5115532;28;20079;-66
2020/12/22 04:38:42;;;;;;;4.63;0.90;;;;;;;12.13;100.00;101293.19;5115341;28;20066;-66
2020/12/22 04:41:11;;;;;;;3.28;1.20;;;;;;;12.12;100.00;101294.28;5114311;28;20445;-66
2020/12/22 04:43:41;;;;;;;7.60;0.80;;;;;;;12.13;100.00;101293.19;5115716;28;20535;-66
2020/12/22 04:46:07;;;;;;;8.70;0.73;;;;;;;12.15;100.00;101292.94;5115754;28;20031;-66
2020/12/22 04:48:39;;;;;;;8.52;0.90;;;;;;;12.15;100.00;101291.06;5115143;28;20501;-67
2020/12/22 04:51:09;;;;;;;10.20;1.35;;;;;;;12.15;100.00;101295.69;5115250;28;20059;-66
2020/12/22 04:53:36;;;;;;;21.17;3.08;;;;;;;12.15;100.00;101299.28;5115085;28;20031;-66
2020/12/22 04:56:04;;;;;;;31.95;3.92;;;;;;;12.14;100.00;101314.03;5115158;28;20047;-66
2020/12/22 04:58:30;;;;;;;26.58;4.43;;;;;;;12.15;100.00;101312.97;5115034;28;20047;-66
2020/12/22 05:00:56;;;;;;;31.73;5.28;;;;;;;12.16;100.00;101302.88;5114947;28;20036;-66
2020/12/22 05:03:23;;;;;;;33.42;5.15;;;;;;;12.16;100.00;101300.97;5114676;28;20060;-66
2020/12/22 05:05:51;;;;;;;40.33;6.47;;;;;;;12.16;100.00;101317.38;5114957;28;20035;-66
2020/12/22 05:08:17;;;;;;;28.77;5.30;;;;;;;12.14;100.00;101319.50;5114685;28;20043;-66
2020/12/22 05:10:43;;;;;;;40.15;4.90;;;;;;;12.14;100.00;101314.03;5114850;28;20385;-66
2020/12/22 05:13:10;;;;;;;30.08;4.65;;;;;;;12.12;100.00;101315.34;5114760;27;20123;-66
2020/12/22 05:15:35;;;;;;;30.15;4.05;;;;;;;12.12;100.00;101323.56;5115093;28;20031;-66
2020/12/22 05:18:02;;;;;;;30.27;5.30;;;;;;;12.10;100.00;101321.06;5114645;28;20409;-66
2020/12/22 05:20:28;;;;;;;29.60;4.05;;;;;;;12.11;100.00;101324.63;5115000;28;20042;-65
2020/12/22 05:22:55;;;;;;;25.58;4.80;;;;;;;12.09;100.00;101327.63;5114720;27;20488;-66
2020/12/22 05:25:21;;;;;;;27.92;5.25;;;;;;;12.06;100.00;101339.88;5114797;28;20059;-66
2020/12/22 05:27:49;;;;;;;28.30;4.32;;;;;;;12.07;100.00;101336.06;5114558;28;20031;-66
2020/12/22 05:30:16;;;;;;;24.88;3.45;;;;;;;12.06;100.00;101344.53;5114764;28;20121;-66
2020/12/22 05:32:43;;;;;;;21.27;3.38;;;;;;;12.04;100.00;101333.00;5114614;28;20466;-65
2020/12/22 05:35:12;;;;;;;28.00;3.90;;;;;;;12.03;100.00;101323.94;5114636;28;20037;-66
2020/12/22 05:37:40;;;;;;;26.02;4.22;;;;;;;12.01;100.00;101323.34;5114519;28;20027;-66
2020/12/22 05:40:09;;;;;;;26.23;4.18;;;;;;;12.00;100.00;101323.59;5113644;28;20053;-66
2020/12/22 05:42:36;;;;;;;22.98;3.75;;;;;;;11.99;100.00;101338.38;5114378;27;20378;-66
2020/12/22 05:45:05;;;;;;;21.45;4.10;;;;;;;11.98;100.00;101340.28;5114529;28;20038;-66
2020/12/22 05:47:31;;;;;;;23.38;3.53;;;;;;;11.96;100.00;101345.13;5114404;28;20059;-66
2020/12/22 05:49:58;;;;;;;23.65;3.55;;;;;;;11.95;100.00;101345.38;5114274;28;20023;-66
2020/12/22 05:52:25;;;;;;;23.88;3.55;;;;;;;11.94;100.00;101343.69;5114321;28;20047;-66
2020/12/22 05:54:56;;;;;;;27.65;3.38;;;;;;;11.94;100.00;101347.28;5114181;28;20402;-66
2020/12/22 05:57:23;;;;;;;36.25;4.90;;;;;;;11.94;100.00;101357.38;5114129;28;20164;-66
2020/12/22 05:59:50;;;;;;;25.80;3.75;;;;;;;11.93;100.00;101350.25;5113978;28;20088;-66
2020/12/22 06:02:32;;;;;;;29.00;4.45;;;;;;;11.95;100.00;101345.38;5114008;28;20032;-66
2020/12/22 06:05:02;;;;;;;28.25;4.57;;;;;;;11.95;100.00;101350.84;5113998;27;20521;-66
2020/12/22 06:07:28;;;;;;;23.90;3.17;;;;;;;11.94;100.00;101357.38;5113928;28;20130;-65
2020/12/22 06:09:55;;;;;;;27.40;3.10;;;;;;;11.91;100.00;101363.34;5113942;28;20034;-66
2020/12/22 06:12:21;;;;;;;29.45;3.60;;;;;;;11.90;100.00;101367.16;5113736;28;20035;-66
2020/12/22 06:14:50;;;;;;;33.22;3.30;;;;;;;11.90;100.00;101372.63;5113782;28;20100;-66
2020/12/22 06:17:16;;;;;;;23.33;3.88;;;;;;;11.89;100.00;101370.97;5113746;28;20520;-65
2020/12/22 06:19:43;;;;;;;26.80;4.55;;;;;;;11.88;100.00;101363.81;5113757;28;20042;-66
2020/12/22 06:22:12;;;;;;;32.88;5.60;;;;;;;11.87;100.00;101367.63;5113792;28;20452;-65
2020/12/22 06:24:38;;;;;;;30.85;5.30;;;;;;;11.87;100.00;101368.47;5113808;28;20035;-65
2020/12/22 06:27:06;;;;;;;34.15;5.18;;;;;;;11.88;100.00;101383.00;5113383;28;20478;-66
2020/12/22 06:29:33;;;;;;;36.45;4.82;;;;;;;11.89;100.00;101381.91;5113573;28;20444;-66
2020/12/22 06:32:17;;;;;;;31.75;6.13;;;;;;;11.88;100.00;101385.72;5113366;28;20028;-66
2020/12/22 06:34:44;;;;;;;31.45;4.40;;;;;;;11.89;100.00;101376.44;5113300;28;20053;-66
2020/12/22 06:37:10;;;;;;;31.45;4.57;;;;;;;11.90;100.00;101367.16;5113452;28;20065;-66
2020/12/22 06:39:46;;;;;;;24.85;4.35;;;;;;;11.89;100.00;101370.97;5112913;28;20127;-66
2020/12/22 06:42:30;;;;;;;43.13;6.65;;;;;;;11.88;100.00;101366.56;5113131;28;20042;-66
2020/12/22 06:45:39;;;;;;;29.48;4.68;;;;;;;11.88;100.00;101374.78;5112878;28;20393;-66
2020/12/22 06:48:04;;;;;;;37.40;4.85;;;;;;;11.87;100.00;101378.59;5104452;28;20134;-66
2020/12/22 06:50:43;;;;;;;37.67;4.85;;;;;;;11.87;100.00;101381.31;5112141;28;20127;-66
2020/12/22 06:53:35;;;;;;;33.60;4.65;;;;;;;11.88;100.00;101393.94;5112871;28;20397;-66
2020/12/22 06:56:04;;;;;;;37.85;5.20;;;;;;;11.88;100.00;101402.16;5112815;28;20032;-65
2020/12/22 06:58:40;;;;;;;42.67;5.55;;;;;;;11.89;100.00;101403.81;5112402;28;20088;-66
2020/12/22 07:01:24;;;;;;;36.78;5.18;;;;;;;11.88;100.00;101408.47;5112508;28;20031;-66
2020/12/22 07:03:51;;;;;;;30.17;4.68;;;;;;;11.89;100.00;101399.16;5112373;28;20035;-66
2020/12/22 07:06:52;;;;;;;36.17;4.75;;;;;;;11.89;100.00;101395.59;5112659;28;20061;-66
2020/12/22 07:09:20;;;;;;;36.20;4.85;;;;;;;11.89;100.00;101390.97;5112531;28;20027;-66
2020/12/22 07:11:47;;;;;;;39.42;5.13;;;;;;;11.89;100.00;101392.88;5112414;28;20043;-66
2020/12/22 07:14:14;;;;;;;32.75;5.10;;;;;;;11.90;100.00;101402.75;5112421;28;20039;-66
2020/12/22 07:16:58;;;;;;;30.10;5.03;;;;;;;11.89;100.00;101401.06;5112573;28;20035;-66
2020/12/22 07:19:28;;;;;;;19.33;3.78;;;;;;;11.91;100.00;101409.88;5112622;28;20466;-66
2020/12/22 07:22:02;;;;;;;25.75;4.72;;;;;;;11.94;100.00;101409.41;5112308;28;20535;-66
2020/12/22 07:24:32;;;;;;;32.78;5.13;;;;;;;11.94;100.00;101412.13;5112219;28;20468;-66
2020/12/22 07:26:59;;;;;;;21.23;3.20;;;;;;;11.94;100.00;101418.44;5112434;28;20533;-66
2020/12/22 07:29:24;;;;;;;34.63;3.55;;;;;;;11.94;100.00;101423.09;5112206;28;20063;-66
2020/12/22 07:31:50;;;;;;;25.45;2.85;;;;;;;11.92;100.00;101425.22;5112148;28;20116;-66
2020/12/22 07:34:16;;;;;;;21.20;3.70;;;;;;;11.93;100.00;101415.94;5112229;28;20482;-66
2020/12/22 07:36:42;;;;;;;26.63;3.42;;;;;;;11.94;100.00;101406.66;5112041;28;20122;-66
2020/12/22 07:39:17;;;;;;;30.23;4.63;;;;;;;11.93;100.00;101410.47;5111868;28;20035;-66
2020/12/22 07:41:43;;;;;;;39.00;6.90;;;;;;;11.94;100.00;101401.19;5111982;28;20038;-66
2020/12/22 07:44:12;;;;;;;34.33;6.05;;;;;;;11.94;100.00;101398.44;5112053;27;20477;-66
2020/12/22 07:46:39;;;;;;;29.98;5.32;;;;;;;11.96;100.00;101399.03;5111905;28;20496;-66
2020/12/22 07:49:06;;;;;;;30.45;4.82;;;;;;;11.95;100.00;101402.84;5111752;28;20480;-66
2020/12/22 07:51:33;;;;;;;34.55;5.88;;;;;;;11.96;100.00;101410.00;5111756;28;20114;-66
2020/12/22 07:54:05;;;;;;;24.08;4.00;;;;;;;11.96;100.00;101415.47;5111666;28;20497;-66
2020/12/22 07:56:33;;;;;;;29.33;4.00;;;;;;;11.96;100.00;101427.25;5111691;28;20129;-66
2020/12/22 07:59:02;;;;;;;26.52;3.67;;;;;;;11.96;100.00;101431.91;5111491;28;20031;-66
2020/12/22 08:01:29;;;;;;;36.25;4.53;;;;;;;11.97;100.00;101448.09;5111704;28;20048;-65
2020/12/22 08:03:55;;;;;;;37.35;5.05;;;;;;;11.97;100.00;101447.25;5111076;28;20043;-66
2020/12/22 08:06:20;;;;;;;31.17;4.43;;;;;;;11.97;100.00;101439.88;5111485;28;20045;-66
2020/12/22 08:08:59;;;;;;;22.38;3.58;;;;;;;11.98;100.00;101443.47;5111415;28;20031;-66
2020/12/22 08:11:25;;;;;;;26.20;3.72;;;;;;;11.97;100.00;101444.50;5109570;28;20066;-66
2020/12/22 08:13:52;;;;;;;39.67;4.97;;;;;;;11.98;100.00;101457.16;5088889;28;20043;-66
2020/12/22 08:16:19;;;;;;;27.38;4.35;;;;;;;11.98;100.00;101458.00;5090526;28;20047;-67
2020/12/22 08:18:46;;;;;;;32.40;4.15;;;;;;;11.99;100.00;101453.34;5088646;28;20032;-66
2020/12/22 08:21:13;;;;;;;39.20;4.00;;;;;;;11.99;100.00;101453.34;5090842;28;20036;-66
2020/12/22 08:23:39;;;;;;;28.70;3.83;;;;;;;11.99;100.00;101462.41;5091495;28;20036;-66
2020/12/22 08:26:06;;;;;;;28.08;3.92;;;;;;;12.00;100.00;101465.97;5107203;28;20043;-67
2020/12/22 08:28:34;;;;;;;43.78;5.28;;;;;;;12.00;100.00;101465.97;5090636;28;20032;-66
2020/12/22 08:31:14;;;;;;;55.28;6.70;;;;;;;12.02;100.00;101469.31;5090491;28;20570;-66
2020/12/22 08:33:41;;;;;;;37.75;6.88;;;;;;;12.02;100.00;101469.31;5090650;28;20063;-66
2020/12/22 08:36:11;;;;;;;43.15;6.00;;;;;;;12.03;100.00;101487.38;5090572;28;20040;-68
2020/12/22 08:38:37;;;;;;;48.42;6.78;;;;;;;12.03;100.00;101470.97;5090590;28;20488;-66
2020/12/22 08:41:21;;;;;;;32.47;4.68;;;;;;;12.03;100.00;101474.53;5090554;28;20039;-68
2020/12/22 08:43:51;;;;;;;38.90;4.47;;;;;;;12.05;100.00;101479.78;5090617;28;20028;-67
2020/12/22 08:46:19;;;;;;;34.53;4.45;;;;;;;12.07;100.00;101474.88;5090481;28;20404;-65
2020/12/22 08:48:45;;;;;;;32.92;5.32;;;;;;;12.07;100.00;101466.69;5090382;28;20036;-65
2020/12/22 08:51:11;;;;;;;30.88;4.07;;;;;;;12.07;100.00;101463.94;5090662;28;20470;-64
2020/12/22 08:53:47;;;;;;;33.13;4.93;;;;;;;12.07;100.00;101466.69;5090313;28;20040;-67
2020/12/22 08:56:13;;;;;;;22.95;3.17;;;;;;;12.07;100.00;101472.16;5090484;28;20060;-67
2020/12/22 08:59:14;;;;;;;20.50;3.05;;;;;;;12.05;100.00;101468.81;5090210;28;20509;-68
2020/12/22 09:01:42;;;;;;;24.50;2.58;;;;;;;12.07;100.00;101477.63;5044573;28;20064;-67
2020/12/22 09:04:10;;;;;;;16.95;2.40;;;;;;;12.08;100.00;101468.34;5080287;28;20036;-66
2020/12/22 09:06:40;;;;;;;34.53;9.23;;;;;;;12.07;100.00;101467.50;5090593;28;20486;-66
2020/12/22 09:09:08;;;;;;;22.27;3.60;;;;;;;12.08;100.00;101473.81;5100763;28;20028;-69
2020/12/22 09:11:39;;;;;;;31.50;3.38;;;;;;;12.08;100.00;101473.81;5090820;28;20489;-65
2020/12/22 09:14:07;;;;;;;31.15;4.32;;;;;;;12.08;100.00;101469.19;5091455;28;20362;-65
2020/12/22 09:16:49;;;;;;;36.20;4.55;;;;;;;12.10;100.00;101479.88;5094019;28;20382;-66
2020/12/22 09:19:20;;;;;;;45.58;5.40;;;;;;;12.13;100.00;101484.88;5094054;28;20039;-66
2020/12/22 09:21:46;;;;;;;56.65;6.18;;;;;;;12.14;100.00;101481.06;5094321;28;20059;-65
2020/12/22 09:24:18;;;;;;;68.90;7.97;;;;;;;12.17;100.00;101477.88;5093990;28;20616;-68
2020/12/22 09:26:58;;;;;;;62.60;8.60;;;;;;;12.23;100.00;101476.09;5094238;28;20058;-67
2020/12/22 09:29:24;;;;;;;78.90;10.18;;;;;;;12.28;100.00;101468.00;5093921;28;20455;-65
2020/12/22 09:31:51;;;;;;;85.72;9.63;;;;;;;12.33;100.00;101476.34;5093787;28;20466;-67
2020/12/22 09:34:17;;;;;;;69.75;8.85;;;;;;;12.39;100.00;101480.84;5093054;28;20020;-66
2020/12/22 09:36:42;;;;;;;70.93;8.43;;;;;;;12.44;100.00;101474.66;5092326;28;20371;-67
2020/12/22 09:39:08;;;;;;;74.28;10.23;;;;;;;12.48;100.00;101484.06;5092183;28;20036;-67
2020/12/22 09:41:41;;;;;;;84.32;10.10;;;;;;;12.52;100.00;101490.75;5093287;28;20402;-67
2020/12/22 09:44:07;;;;;;;87.88;8.60;;;;;;;12.56;100.00;101491.94;5093176;28;20089;-66
2020/12/22 09:46:32;;;;;;;85.55;9.70;;;;;;;12.61;100.00;101486.56;5096078;28;20035;-67
2020/12/22 09:48:58;;;;;;;80.88;9.07;;;;;;;12.63;100.00;101484.41;5097950;28;20109;-66
2020/12/22 09:51:24;;;;;;;64.15;8.48;;;;;;;12.65;100.00;101491.31;5094233;28;20494;-66
2020/12/22 09:53:50;;;;;;;80.63;10.82;;;;;;;12.67;100.00;101504.81;5093035;28;20031;-67
2020/12/22 09:56:16;;;;;;;93.57;12.15;;;;;;;12.69;100.00;101508.13;5092861;28;20386;-66
2020/12/22 09:58:41;;;;;;;85.22;10.15;;;;;;;12.70;100.00;101501.56;5092840;28;20032;-66
2020/12/22 10:01:07;;;;;;;83.20;11.30;;;;;;;12.72;100.00;101502.16;5092954;28;20485;-66
2020/12/22 10:03:32;;;;;;;81.53;10.50;;;;;;;12.72;100.00;101510.38;5091990;28;20116;-66
2020/12/22 10:05:58;;;;;;;84.22;11.18;;;;;;;12.72;100.00;101524.09;5092945;28;20086;-66
2020/12/22 10:08:23;;;;;;;98.45;12.43;;;;;;;12.72;100.00;101521.34;5093103;28;20043;-66
2020/12/22 10:10:49;;;;;;;85.82;11.52;;;;;;;12.73;100.00;101528.50;5093017;28;20055;-66
2020/12/22 10:13:15;;;;;;;95.00;11.88;;;;;;;12.72;100.00;101529.56;5093139;28;20051;-66
2020/12/22 10:15:40;;;;;;;84.70;10.85;;;;;;;12.71;100.00;101527.91;5092783;28;20039;-66
2020/12/22 10:18:09;;;;;;;84.15;11.32;;;;;;;12.72;100.00;101535.06;5091124;28;20032;-66
2020/12/22 10:20:38;;;;;;;95.47;10.57;;;;;;;12.72;100.00;101540.53;5092347;28;20039;-66
2020/12/22 10:23:03;;;;;;;105.18;12.32;;;;;;;12.72;100.00;101529.56;5092911;28;20032;-66
2020/12/22 10:25:30;;;;;;;91.50;11.15;;;;;;;12.72;100.00;101543.28;5092095;28;20412;-66
2020/12/22 10:27:56;;;;;;;106.15;12.07;;;;;;;12.71;100.00;101549.84;5092376;28;20036;-66
2020/12/22 10:30:21;;;;;;;83.05;10.35;;;;;;;12.73;100.00;101541.38;5091995;28;20038;-66
2020/12/22 10:32:47;;;;;;;91.60;10.07;;;;;;;12.74;100.00;101538.38;5092354;28;20138;-66
2020/12/22 10:35:13;;;;;;;75.57;9.65;;;;;;;12.73;100.00;101539.47;5092027;28;20036;-65
2020/12/22 10:37:38;;;;;;;85.88;10.25;;;;;;;12.74;100.00;101532.91;5091968;28;20036;-66
2020/12/22 10:40:04;;;;;;;73.07;8.95;;;;;;;12.75;100.00;101522.78;5092455;28;20040;-66
2020/12/22 10:42:30;;;;;;;67.03;9.80;;;;;;;12.77;100.00;101526.94;5072108;28;20777;-66
2020/12/22 10:44:55;;;;;;;71.80;9.02;;;;;;;12.78;100.00;101525.03;5086481;28;20042;-66
2020/12/22 10:47:21;;;;;;;73.60;9.70;;;;;;;12.78;100.00;101528.59;5092136;28;20032;-66
2020/12/22 10:49:48;;;;;;;77.82;9.20;;;;;;;12.77;100.00;101523.38;5091237;28;20042;-66
2020/12/22 10:52:13;;;;;;;91.20;9.95;;;;;;;12.76;100.00;101514.31;5091887;28;20044;-66
2020/12/22 10:54:39;;;;;;;86.90;10.82;;;;;;;12.74;100.00;101504.66;5092466;28;20047;-66
2020/12/22 10:57:05;;;;;;;76.05;10.73;;;;;;;12.73;100.00;101506.56;5091864;28;20387;-66
2020/12/22 10:59:30;;;;;;;65.53;8.52;;;;;;;12.72;100.00;101496.69;5091598;28;20040;-66
2020/12/22 11:01:57;;;;;;;76.30;8.13;;;;;;;12.71;100.00;101500.50;5092275;28;20063;-66
2020/12/22 11:04:23;;;;;;;70.03;9.52;;;;;;;12.73;100.00;101492.88;5091265;28;20048;-67
2020/12/22 11:07:12;;;;;;;65.60;7.45;;;;;;;12.73;100.00;101487.38;5091883;28;20105;-67
2020/12/22 11:09:38;;;;;;;66.07;9.20;;;;;;;12.75;100.00;101479.75;5090859;28;20078;-65
2020/12/22 11:12:04;;;;;;;69.55;8.32;;;;;;;12.76;100.00;101475.94;5091776;28;20044;-66